createdAt,value
2018-10-18T00:00:18.188Z,2.00
2018-10-18T00:00:56.205Z,1.42
2018-10-18T00:01:34.310Z,2.20
2018-10-18T00:02:12.590Z,1.72
2018-10-18T00:02:50.593Z,2.20
2018-10-18T00:03:30.013Z,1.87
2018-10-18T00:04:08.072Z,2.00
2018-10-18T00:04:46.576Z,1.47
2018-10-18T00:05:25.144Z,2.02
2018-10-18T00:06:03.353Z,1.72
2018-10-18T00:06:41.367Z,1.90
2018-10-18T00:07:19.304Z,2.27
2018-10-18T00:07:57.310Z,2.15
2018-10-18T00:08:35.514Z,2.20
2018-10-18T00:09:14.748Z,2.20
2018-10-18T00:09:52.628Z,2.15
2018-10-18T00:10:30.481Z,1.98
2018-10-18T00:11:08.829Z,2.15
2018-10-18T00:11:47.009Z,1.80
2018-10-18T00:12:25.025Z,1.60
2018-10-18T00:13:02.966Z,1.35
2018-10-18T00:13:40.888Z,1.85
2018-10-18T00:14:18.825Z,1.80
2018-10-18T00:14:56.864Z,1.47
2018-10-18T00:15:35.383Z,1.77
2018-10-18T00:16:13.315Z,1.80
2018-10-18T00:16:51.170Z,1.70
2018-10-18T00:17:33.684Z,1.67
2018-10-18T00:18:12.049Z,2.10
2018-10-18T00:18:50.756Z,1.37
2018-10-18T00:19:29.009Z,1.70
2018-10-18T00:20:07.858Z,1.85
2018-10-18T00:20:46.904Z,1.90
2018-10-18T00:21:25.225Z,1.62
2018-10-18T00:22:04.409Z,1.60
2018-10-18T00:22:42.776Z,1.80
2018-10-18T00:23:21.979Z,1.70
2018-10-18T00:24:00.256Z,1.82
2018-10-18T00:24:38.341Z,2.60
2018-10-18T00:25:17.135Z,1.60
2018-10-18T00:25:55.599Z,2.08
2018-10-18T00:26:34.224Z,1.40
2018-10-18T00:27:12.431Z,1.65
2018-10-18T00:27:50.633Z,1.45
2018-10-18T00:28:28.984Z,1.50
2018-10-18T00:29:07.172Z,1.27
2018-10-18T00:29:45.769Z,1.50
2018-10-18T00:30:24.237Z,1.60
2018-10-18T00:31:02.794Z,1.35
2018-10-18T00:31:40.876Z,1.70
2018-10-18T00:32:18.776Z,1.40
2018-10-18T00:32:57.426Z,1.27
2018-10-18T00:33:35.603Z,1.60
2018-10-18T00:34:14.789Z,1.40
2018-10-18T00:34:53.074Z,1.37
2018-10-18T00:35:32.125Z,1.60
2018-10-18T00:36:11.474Z,1.10
2018-10-18T00:36:49.751Z,1.92
2018-10-18T00:37:27.918Z,1.30
2018-10-18T00:38:06.426Z,1.50
2018-10-18T00:38:45.100Z,1.95
2018-10-18T00:39:23.521Z,1.52
2018-10-18T00:40:02.091Z,1.37
2018-10-18T00:40:40.724Z,1.10
2018-10-18T00:41:19.807Z,1.32
2018-10-18T00:41:57.722Z,1.40
2018-10-18T00:42:36.081Z,1.40
2018-10-18T00:43:14.390Z,1.20
2018-10-18T00:43:52.892Z,1.60
2018-10-18T00:44:31.933Z,1.80
2018-10-18T00:45:12.024Z,1.20
2018-10-18T00:45:51.300Z,1.35
2018-10-18T00:46:29.397Z,1.70
2018-10-18T00:47:07.448Z,1.57
2018-10-18T00:47:45.989Z,1.17
2018-10-18T00:48:23.821Z,1.50
2018-10-18T00:49:03.376Z,1.40
2018-10-18T00:49:43.239Z,1.10
2018-10-18T00:50:21.406Z,1.40
2018-10-18T00:50:59.577Z,1.10
2018-10-18T00:51:37.921Z,1.15
2018-10-18T00:52:16.535Z,1.55
2018-10-18T00:52:54.979Z,0.90
2018-10-18T00:53:33.857Z,1.42
2018-10-18T00:54:13.167Z,1.27
2018-10-18T00:54:51.386Z,1.42
2018-10-18T00:55:29.961Z,1.50
2018-10-18T00:56:09.405Z,1.30
2018-10-18T00:56:48.878Z,1.37
2018-10-18T00:57:26.879Z,1.20
2018-10-18T00:58:04.872Z,1.45
2018-10-18T00:58:42.799Z,1.10
2018-10-18T00:59:24.462Z,1.20
2018-10-18T01:00:02.691Z,1.50
2018-10-18T01:00:41.133Z,0.97
2018-10-18T01:01:19.424Z,1.17
2018-10-18T01:01:57.672Z,1.12
2018-10-18T01:02:35.814Z,1.03
2018-10-18T01:03:14.202Z,1.10
2018-10-18T01:03:53.612Z,1.42
2018-10-18T01:04:32.032Z,1.30
2018-10-18T01:05:10.545Z,1.37
2018-10-18T01:05:48.876Z,1.45
2018-10-18T01:06:26.781Z,1.40
2018-10-18T01:07:04.745Z,1.25
2018-10-18T01:07:43.319Z,1.30
2018-10-18T01:08:22.335Z,1.40
2018-10-18T01:09:00.642Z,1.30
2018-10-18T01:09:40.167Z,1.85
2018-10-18T01:10:19.680Z,1.20
2018-10-18T01:10:57.561Z,1.15
2018-10-18T01:11:35.469Z,1.35
2018-10-18T01:15:15.393Z,1.32
2018-10-18T01:15:53.771Z,1.10
2018-10-18T01:16:32.636Z,1.20
2018-10-18T01:17:11.928Z,1.10
2018-10-18T01:17:50.995Z,1.37
2018-10-18T01:18:28.972Z,1.17
2018-10-18T01:19:08.300Z,1.00
2018-10-18T01:19:47.568Z,1.70
2018-10-18T01:20:25.945Z,1.10
2018-10-18T01:21:04.356Z,1.27
2018-10-18T01:21:42.591Z,1.30
2018-10-18T01:22:21.687Z,1.32
2018-10-18T01:22:59.752Z,1.50
2018-10-18T01:23:38.360Z,1.30
2018-10-18T01:24:17.004Z,1.20
2018-10-18T01:24:55.392Z,0.90
2018-10-18T01:25:34.078Z,1.85
2018-10-18T01:26:12.430Z,1.37
2018-10-18T01:26:54.035Z,1.37
2018-10-18T01:27:31.934Z,1.67
2018-10-18T01:28:09.860Z,1.22
2018-10-18T01:28:47.739Z,1.00
2018-10-18T01:29:25.768Z,1.35
2018-10-18T01:30:03.743Z,1.30
2018-10-18T01:30:42.766Z,1.40
2018-10-18T01:31:20.758Z,1.62
2018-10-18T01:31:59.411Z,1.75
2018-10-18T01:32:37.596Z,1.27
2018-10-18T01:33:15.507Z,1.40
2018-10-18T01:33:53.971Z,2.10
2018-10-18T01:34:32.785Z,2.02
2018-10-18T01:35:11.442Z,1.55
2018-10-18T01:35:49.857Z,1.92
2018-10-18T01:36:28.693Z,1.70
2018-10-18T01:37:06.647Z,1.40
2018-10-18T01:37:45.279Z,1.67
2018-10-18T01:38:24.315Z,1.92
2018-10-18T01:39:20.820Z,1.70
2018-10-18T01:39:59.234Z,1.70
2018-10-18T01:40:37.415Z,2.07
2018-10-18T01:41:15.738Z,1.70
2018-10-18T01:41:53.707Z,1.65
2018-10-18T01:42:31.596Z,1.87
2018-10-18T01:43:09.845Z,1.60
2018-10-18T01:43:48.282Z,1.57
2018-10-18T01:44:26.316Z,1.80
2018-10-18T01:45:04.303Z,1.47
2018-10-18T01:45:42.290Z,1.70
2018-10-18T01:46:20.533Z,1.50
2018-10-18T01:46:58.759Z,1.60
2018-10-18T01:47:36.568Z,1.70
2018-10-18T01:48:14.751Z,1.70
2018-10-18T01:48:52.708Z,1.45
2018-10-18T01:49:30.594Z,1.47
2018-10-18T01:50:09.553Z,2.00
2018-10-18T01:50:47.901Z,1.50
2018-10-18T01:51:26.217Z,1.50
2018-10-18T01:52:04.363Z,1.62
2018-10-18T01:52:42.460Z,1.90
2018-10-18T01:53:20.328Z,1.40
2018-10-18T01:53:58.306Z,1.67
2018-10-18T01:54:36.460Z,1.23
2018-10-18T01:55:14.875Z,1.62
2018-10-18T01:55:53.303Z,1.50
2018-10-18T01:56:31.686Z,1.40
2018-10-18T01:57:10.439Z,1.47
2018-10-18T01:57:48.324Z,1.80
2018-10-18T01:58:26.284Z,1.45
2018-10-18T01:59:04.143Z,1.67
2018-10-18T01:59:42.630Z,1.32
2018-10-18T02:00:20.485Z,1.70
2018-10-18T02:00:58.458Z,1.50
2018-10-18T02:01:36.415Z,1.20
2018-10-18T02:02:14.438Z,1.32
2018-10-18T02:02:52.441Z,1.55
2018-10-18T02:03:30.516Z,1.35
2018-10-18T02:04:08.879Z,1.60
2018-10-18T02:04:46.717Z,1.82
2018-10-18T02:05:24.655Z,2.00
2018-10-18T02:06:03.431Z,1.47
2018-10-18T02:06:41.794Z,1.70
2018-10-18T02:07:20.649Z,1.90
2018-10-18T02:07:58.808Z,1.50
2018-10-18T02:08:37.370Z,1.93
2018-10-18T02:09:15.499Z,1.70
2018-10-18T02:09:54.284Z,2.00
2018-10-18T02:10:32.585Z,1.42
2018-10-18T02:11:10.555Z,1.50
2018-10-18T02:11:48.665Z,1.50
2018-10-18T02:12:26.449Z,1.85
2018-10-18T02:13:04.373Z,1.40
2018-10-18T02:13:42.676Z,1.57
2018-10-18T02:14:20.912Z,1.52
2018-10-18T02:14:59.580Z,1.90
2018-10-18T02:15:37.967Z,1.42
2018-10-18T02:16:17.444Z,1.45
2018-10-18T02:16:55.289Z,1.37
2018-10-18T02:17:34.864Z,1.10
2018-10-18T02:18:13.440Z,1.00
2018-10-18T02:18:51.518Z,1.30
2018-10-18T02:19:29.441Z,1.20
2018-10-18T02:20:09.872Z,1.30
2018-10-18T02:20:48.199Z,1.50
2018-10-18T02:21:26.595Z,1.30
2018-10-18T02:22:05.131Z,1.60
2018-10-18T02:22:43.609Z,1.23
2018-10-18T02:23:23.269Z,1.47
2018-10-18T02:24:01.470Z,1.27
2018-10-18T02:24:39.891Z,2.10
2018-10-18T02:25:18.848Z,1.07
2018-10-18T02:25:57.222Z,1.45
2018-10-18T02:26:35.453Z,1.50
2018-10-18T02:27:13.462Z,1.25
2018-10-18T02:27:52.805Z,1.35
2018-10-18T02:28:31.865Z,1.35
2018-10-18T02:29:10.448Z,1.60
2018-10-18T02:29:48.800Z,1.40
2018-10-18T02:30:27.245Z,1.87
2018-10-18T02:31:05.678Z,1.50
2018-10-18T02:31:44.308Z,1.20
2018-10-18T02:32:23.681Z,1.45
2018-10-18T02:33:01.958Z,1.10
2018-10-18T02:33:40.177Z,1.47
2018-10-18T02:34:18.281Z,1.40
2018-10-18T02:34:56.619Z,1.50
2018-10-18T02:35:34.909Z,1.30
2018-10-18T02:36:14.477Z,1.80
2018-10-18T02:36:52.756Z,1.40
2018-10-18T02:37:31.051Z,1.27
2018-10-18T02:38:09.501Z,1.40
2018-10-18T02:38:47.731Z,1.70
2018-10-18T02:39:27.195Z,1.50
2018-10-18T02:40:05.245Z,1.70
2018-10-18T02:40:44.199Z,1.43
2018-10-18T02:41:22.913Z,1.50
2018-10-18T02:42:01.222Z,1.40
2018-10-18T02:42:40.017Z,1.40
2018-10-18T02:43:18.249Z,1.50
2018-10-18T02:43:56.658Z,1.30
2018-10-18T02:44:36.161Z,1.37
2018-10-18T02:45:14.321Z,0.95
2018-10-18T02:45:53.913Z,1.50
2018-10-18T02:46:32.426Z,1.10
2018-10-18T02:47:11.708Z,1.55
2018-10-18T02:47:49.661Z,1.20
2018-10-18T02:48:28.335Z,1.20
2018-10-18T02:49:06.864Z,1.55
2018-10-18T02:49:45.021Z,1.60
2018-10-18T02:50:23.634Z,1.45
2018-10-18T02:51:03.173Z,1.22
2018-10-18T02:51:41.375Z,1.40
2018-10-18T02:52:19.714Z,1.50
2018-10-18T02:52:59.180Z,1.70
2018-10-18T02:53:38.971Z,1.12
2018-10-18T02:54:17.543Z,1.95
2018-10-18T02:54:55.961Z,1.30
2018-10-18T02:55:35.002Z,1.65
2018-10-18T02:56:13.119Z,1.00
2018-10-18T02:56:52.191Z,1.20
2018-10-18T02:57:30.784Z,1.67
2018-10-18T02:58:09.108Z,1.00
2018-10-18T02:58:47.212Z,1.42
2018-10-18T02:59:25.141Z,1.50
2018-10-18T03:00:04.134Z,1.10
2018-10-18T03:00:42.438Z,1.77
2018-10-18T03:01:20.660Z,1.52
2018-10-18T03:01:59.720Z,1.15
2018-10-18T03:02:38.441Z,1.27
2018-10-18T03:03:16.960Z,1.47
2018-10-18T03:03:56.711Z,1.40
2018-10-18T03:04:34.960Z,1.37
2018-10-18T03:05:13.264Z,1.42
2018-10-18T03:05:51.718Z,1.10
2018-10-18T03:06:31.119Z,1.20
2018-10-18T03:07:09.554Z,1.60
2018-10-18T03:07:49.698Z,1.05
2018-10-18T03:08:27.687Z,1.40
2018-10-18T03:09:05.925Z,1.10
2018-10-18T03:09:44.021Z,1.40
2018-10-18T03:10:21.834Z,1.00
2018-10-18T03:10:59.986Z,1.35
2018-10-18T03:11:38.138Z,1.20
2018-10-18T03:12:16.493Z,1.40
2018-10-18T03:12:54.948Z,1.10
2018-10-18T03:13:33.299Z,1.55
2018-10-18T03:14:11.535Z,1.20
2018-10-18T03:14:49.629Z,1.15
2018-10-18T03:15:27.963Z,1.10
2018-10-18T03:16:06.539Z,1.32
2018-10-18T03:16:46.849Z,1.27
2018-10-18T03:17:25.849Z,1.60
2018-10-18T03:18:05.088Z,1.20
2018-10-18T03:18:43.171Z,1.23
2018-10-18T03:19:21.733Z,1.10
2018-10-18T03:20:01.205Z,1.55
2018-10-18T03:20:39.725Z,1.40
2018-10-18T03:21:17.727Z,1.30
2018-10-18T03:21:57.152Z,1.20
2018-10-18T03:22:35.295Z,1.50
2018-10-18T03:23:13.402Z,1.50
2018-10-18T03:23:51.489Z,1.20
2018-10-18T03:24:29.953Z,1.32
2018-10-18T03:25:09.272Z,1.10
2018-10-18T03:25:48.710Z,1.50
2018-10-18T03:26:26.578Z,1.55
2018-10-18T03:27:06.124Z,1.30
2018-10-18T03:27:48.862Z,1.20
2018-10-18T03:28:27.522Z,1.50
2018-10-18T03:29:05.542Z,1.30
2018-10-18T03:29:43.967Z,1.60
2018-10-18T03:30:22.385Z,1.30
2018-10-18T03:31:00.879Z,1.65
2018-10-18T03:31:39.201Z,1.20
2018-10-18T03:32:17.112Z,1.42
2018-10-18T03:32:55.405Z,1.57
2018-10-18T03:33:34.648Z,1.10
2018-10-18T03:34:13.821Z,1.47
2018-10-18T03:34:52.712Z,1.70
2018-10-18T03:35:31.133Z,1.40
2018-10-18T03:36:09.675Z,1.57
2018-10-18T03:36:47.820Z,1.50
2018-10-18T03:37:26.256Z,1.30
2018-10-18T03:38:04.824Z,1.17
2018-10-18T03:38:43.740Z,1.53
2018-10-18T03:39:22.392Z,1.50
2018-10-18T03:40:00.878Z,1.35
2018-10-18T03:40:39.309Z,1.57
2018-10-18T03:41:18.975Z,1.70
2018-10-18T03:41:58.165Z,1.32
2018-10-18T03:42:36.741Z,1.40
2018-10-18T03:43:16.135Z,1.60
2018-10-18T03:43:54.089Z,1.45
2018-10-18T03:44:32.671Z,1.52
2018-10-18T03:45:11.269Z,1.32
2018-10-18T03:45:49.580Z,1.77
2018-10-18T03:46:28.527Z,1.25
2018-10-18T03:47:06.999Z,1.45
2018-10-18T03:47:45.864Z,1.30
2018-10-18T03:48:24.537Z,1.45
2018-10-18T03:49:02.851Z,1.62
2018-10-18T03:49:42.904Z,1.40
2018-10-18T03:50:20.873Z,1.52
2018-10-18T03:51:00.301Z,1.40
2018-10-18T03:51:39.947Z,1.65
2018-10-18T03:52:18.136Z,1.57
2018-10-18T03:52:57.497Z,1.55
2018-10-18T03:53:35.744Z,1.82
2018-10-18T03:54:15.737Z,1.55
2018-10-18T03:54:53.951Z,1.30
2018-10-18T03:55:32.504Z,1.50
2018-10-18T03:56:10.565Z,1.72
2018-10-18T03:56:49.664Z,1.85
2018-10-18T03:57:29.361Z,1.60
2018-10-18T03:58:07.964Z,1.90
2018-10-18T03:58:46.475Z,1.77
2018-10-18T03:59:24.900Z,1.90
2018-10-18T04:00:04.290Z,1.82
2018-10-18T04:00:42.636Z,1.80
2018-10-18T04:01:21.883Z,1.90
2018-10-18T04:02:00.303Z,1.98
2018-10-18T04:02:38.544Z,2.20
2018-10-18T04:03:17.168Z,1.98
2018-10-18T04:03:55.350Z,2.30
2018-10-18T04:04:33.944Z,2.17
2018-10-18T04:05:12.530Z,2.50
2018-10-18T04:05:54.034Z,2.15
2018-10-18T04:06:33.353Z,2.10
2018-10-18T04:07:11.764Z,2.20
2018-10-18T04:07:50.804Z,2.12
2018-10-18T04:08:29.152Z,2.15
2018-10-18T04:09:08.988Z,2.47
2018-10-18T04:09:48.188Z,2.50
2018-10-18T04:10:26.750Z,2.25
2018-10-18T04:11:04.815Z,2.62
2018-10-18T04:11:43.829Z,2.50
2018-10-18T04:12:22.268Z,2.20
2018-10-18T04:13:01.849Z,2.42
2018-10-18T04:13:41.787Z,3.00
2018-10-18T04:14:20.539Z,2.12
2018-10-18T04:14:58.738Z,2.05
2018-10-18T04:15:37.969Z,2.15
2018-10-18T04:16:16.207Z,2.30
2018-10-18T04:16:54.506Z,2.12
2018-10-18T04:17:33.828Z,1.95
2018-10-18T04:18:13.205Z,2.95
2018-10-18T04:18:52.666Z,2.70
2018-10-18T04:19:30.794Z,2.50
2018-10-18T04:20:09.499Z,2.40
2018-10-18T04:20:47.577Z,2.08
2018-10-18T04:21:26.626Z,3.85
2018-10-18T04:22:04.752Z,2.85
2018-10-18T04:22:43.322Z,2.63
2018-10-18T04:23:36.629Z,2.80
2018-10-18T04:24:15.754Z,2.62
2018-10-18T04:24:55.089Z,2.47
2018-10-18T04:25:33.197Z,3.00
2018-10-18T04:26:11.093Z,2.85
2018-10-18T04:26:49.708Z,3.00
2018-10-18T04:27:27.583Z,2.60
2018-10-18T04:28:06.538Z,2.45
2018-10-18T04:28:47.467Z,3.40
2018-10-18T04:29:25.396Z,2.58
2018-10-18T04:30:03.303Z,2.50
2018-10-18T04:30:41.308Z,1.90
2018-10-18T04:31:19.175Z,2.40
2018-10-18T04:31:57.069Z,2.12
2018-10-18T04:32:35.116Z,2.63
2018-10-18T04:33:13.086Z,2.30
2018-10-18T04:33:51.239Z,2.55
2018-10-18T04:34:29.098Z,2.10
2018-10-18T04:35:07.067Z,2.33
2018-10-18T04:35:45.127Z,2.02
2018-10-18T04:36:22.896Z,2.85
2018-10-18T04:37:03.721Z,2.98
2018-10-18T04:37:41.671Z,2.87
2018-10-18T04:38:19.568Z,2.60
2018-10-18T04:38:57.557Z,3.08
2018-10-18T04:39:35.464Z,3.40
2018-10-18T04:40:13.313Z,3.33
2018-10-18T04:40:51.493Z,3.20
2018-10-18T04:41:29.362Z,3.58
2018-10-18T04:42:07.322Z,3.60
2018-10-18T04:42:45.359Z,3.40
2018-10-18T04:43:23.306Z,3.67
2018-10-18T04:44:01.472Z,3.00
2018-10-18T04:44:39.619Z,3.20
2018-10-18T04:45:18.169Z,3.45
2018-10-18T04:45:56.397Z,3.20
2018-10-18T04:46:34.369Z,3.80
2018-10-18T04:47:12.404Z,4.03
2018-10-18T04:47:50.496Z,3.80
2018-10-18T04:48:29.509Z,4.20
2018-10-18T04:49:07.603Z,3.85
2018-10-18T04:49:45.636Z,3.80
2018-10-18T04:50:23.438Z,4.47
2018-10-18T04:51:01.274Z,3.85
2018-10-18T04:51:39.294Z,4.20
2018-10-18T04:52:17.108Z,4.65
2018-10-18T04:52:55.077Z,4.20
2018-10-18T04:53:33.035Z,4.00
2018-10-18T04:54:10.996Z,4.97
2018-10-18T04:54:48.836Z,4.95
2018-10-18T04:55:26.597Z,5.40
2018-10-18T04:56:04.532Z,4.22
2018-10-18T04:56:42.509Z,4.40
2018-10-18T04:57:20.443Z,5.92
2018-10-18T04:57:58.313Z,6.03
2018-10-18T04:58:36.238Z,6.17
2018-10-18T04:59:14.169Z,7.20
2018-10-18T04:59:52.254Z,7.03
2018-10-18T05:00:30.202Z,6.10
2018-10-18T05:01:08.364Z,7.53
2018-10-18T05:01:46.288Z,8.88
2018-10-18T05:02:24.304Z,6.80
2018-10-18T05:03:02.331Z,5.30
2018-10-18T05:03:41.124Z,5.33
2018-10-18T05:04:18.979Z,9.55
2018-10-18T05:05:05.933Z,10.95
2018-10-18T05:05:58.724Z,6.47
2018-10-18T05:06:36.674Z,5.80
2018-10-18T05:07:14.750Z,6.90
2018-10-18T05:07:52.779Z,6.67
2018-10-18T05:08:31.255Z,6.20
2018-10-18T05:09:10.849Z,11.48
2018-10-18T05:09:48.779Z,10.20
2018-10-18T05:10:26.763Z,10.08
2018-10-18T05:11:04.783Z,23.70
2018-10-18T05:11:42.636Z,19.00
2018-10-18T05:12:20.629Z,14.28
2018-10-18T05:12:58.676Z,9.88
2018-10-18T05:13:36.587Z,7.58
2018-10-18T05:14:14.427Z,9.48
2018-10-18T05:14:52.387Z,6.72
2018-10-18T05:15:30.303Z,7.08
2018-10-18T05:16:08.395Z,8.20
2018-10-18T05:16:46.231Z,8.88
2018-10-18T05:17:24.159Z,5.55
2018-10-18T05:18:02.058Z,5.55
2018-10-18T05:18:39.883Z,4.57
2018-10-18T05:19:17.998Z,5.47
2018-10-18T05:19:55.896Z,4.45
2018-10-18T05:20:33.742Z,5.05
2018-10-18T05:21:11.713Z,4.50
2018-10-18T05:21:49.702Z,5.15
2018-10-18T05:22:27.491Z,5.83
2018-10-18T05:23:05.387Z,4.90
2018-10-18T05:23:43.296Z,4.83
2018-10-18T05:24:21.303Z,4.97
2018-10-18T05:24:59.665Z,4.45
2018-10-18T05:25:38.859Z,4.25
2018-10-18T05:26:16.896Z,3.92
2018-10-18T05:26:56.200Z,4.15
2018-10-18T05:27:34.496Z,4.30
2018-10-18T05:28:12.319Z,3.85
2018-10-18T05:28:50.257Z,4.70
2018-10-18T05:29:28.167Z,4.55
2018-10-18T05:30:06.416Z,4.42
2018-10-18T05:30:44.438Z,4.20
2018-10-18T05:31:22.470Z,4.55
2018-10-18T05:32:00.585Z,3.50
2018-10-18T05:32:38.667Z,4.00
2018-10-18T05:33:16.545Z,4.92
2018-10-18T05:33:54.460Z,3.80
2018-10-18T05:34:32.343Z,3.80
2018-10-18T05:35:10.467Z,4.00
2018-10-18T05:35:48.341Z,4.08
2018-10-18T05:36:26.263Z,4.58
2018-10-18T05:37:04.072Z,4.08
2018-10-18T05:37:42.252Z,3.40
2018-10-18T05:38:20.574Z,3.60
2018-10-18T05:38:58.496Z,3.83
2018-10-18T05:39:39.214Z,4.35
2018-10-18T05:40:17.069Z,3.50
2018-10-18T05:40:55.024Z,3.33
2018-10-18T05:41:32.838Z,3.92
2018-10-18T05:42:10.728Z,3.65
2018-10-18T05:42:48.729Z,3.90
2018-10-18T05:43:31.055Z,3.65
2018-10-18T05:44:09.113Z,3.80
2018-10-18T05:44:47.352Z,3.58
2018-10-18T05:45:26.599Z,3.60
2018-10-18T05:46:04.414Z,3.80
2018-10-18T05:46:42.372Z,3.33
2018-10-18T05:47:20.528Z,3.17
2018-10-18T05:47:58.450Z,3.30
2018-10-18T05:48:37.739Z,3.00
2018-10-18T05:49:15.765Z,3.10
2018-10-18T05:49:53.881Z,3.27
2018-10-18T05:50:34.101Z,2.90
2018-10-18T05:51:12.220Z,3.45
2018-10-18T05:51:50.247Z,3.00
2018-10-18T05:52:29.575Z,3.20
2018-10-18T05:53:07.659Z,3.05
2018-10-18T05:53:45.744Z,2.77
2018-10-18T05:54:23.603Z,3.30
2018-10-18T05:55:01.602Z,2.98
2018-10-18T05:55:39.570Z,3.35
2018-10-18T05:56:18.724Z,3.42
2018-10-18T05:56:56.638Z,2.67
2018-10-18T05:57:34.558Z,2.75
2018-10-18T05:58:12.485Z,3.20
2018-10-18T05:58:54.999Z,3.08
2018-10-18T05:59:33.031Z,3.00
2018-10-18T06:00:15.259Z,3.10
2018-10-18T06:00:53.333Z,3.10
2018-10-18T06:01:31.397Z,2.90
2018-10-18T06:02:09.692Z,3.02
2018-10-18T06:02:47.969Z,2.70
2018-10-18T06:03:25.883Z,2.40
2018-10-18T06:04:04.000Z,2.70
2018-10-18T06:04:41.940Z,3.23
2018-10-18T06:05:20.493Z,2.27
2018-10-18T06:05:59.476Z,2.20
2018-10-18T06:06:37.374Z,2.40
2018-10-18T06:07:15.585Z,2.50
2018-10-18T06:07:54.028Z,2.10
2018-10-18T06:08:31.920Z,2.55
2018-10-18T06:09:14.451Z,2.60
2018-10-18T06:09:52.404Z,2.25
2018-10-18T06:10:39.359Z,2.25
2018-10-18T06:11:28.540Z,2.50
2018-10-18T06:12:06.644Z,2.47
2018-10-18T06:12:44.436Z,2.40
2018-10-18T06:13:22.473Z,3.20
2018-10-18T06:14:00.442Z,2.35
2018-10-18T06:14:38.445Z,2.30
2018-10-18T06:15:16.411Z,2.45
2018-10-18T06:15:54.320Z,2.20
2018-10-18T06:16:32.300Z,2.30
2018-10-18T06:17:10.257Z,2.10
2018-10-18T06:17:48.192Z,1.90
2018-10-18T06:18:26.149Z,1.80
2018-10-18T06:19:04.111Z,1.60
2018-10-18T06:19:42.039Z,1.30
2018-10-18T06:20:20.502Z,1.40
2018-10-18T06:20:58.374Z,1.30
2018-10-18T06:21:36.278Z,1.45
2018-10-18T06:22:14.620Z,1.60
2018-10-18T06:22:52.615Z,1.60
2018-10-18T06:23:30.663Z,1.42
2018-10-18T06:24:08.472Z,1.50
2018-10-18T06:24:46.779Z,1.67
2018-10-18T06:25:24.943Z,1.65
2018-10-18T06:26:02.844Z,1.35
2018-10-18T06:26:41.063Z,1.65
2018-10-18T06:27:19.263Z,1.10
2018-10-18T06:27:57.603Z,1.20
2018-10-18T06:28:35.577Z,1.23
2018-10-18T06:29:13.714Z,1.00
2018-10-18T06:29:51.732Z,1.17
2018-10-18T06:30:29.611Z,1.05
2018-10-18T06:31:08.065Z,1.10
2018-10-18T06:31:47.176Z,1.15
2018-10-18T06:32:25.075Z,0.88
2018-10-18T06:33:03.257Z,0.80
2018-10-18T06:33:41.211Z,1.10
2018-10-18T06:34:19.221Z,0.90
2018-10-18T06:34:57.194Z,0.88
2018-10-18T06:35:35.088Z,0.88
2018-10-18T06:36:13.192Z,0.90
2018-10-18T06:36:51.210Z,0.88
2018-10-18T06:37:30.101Z,0.80
2018-10-18T06:38:08.170Z,0.82
2018-10-18T06:38:46.055Z,0.90
2018-10-18T06:39:24.129Z,0.70
2018-10-18T06:40:02.123Z,0.65
2018-10-18T06:40:40.126Z,0.93
2018-10-18T06:41:18.155Z,1.12
2018-10-18T06:41:56.147Z,0.80
2018-10-18T06:42:34.179Z,0.70
2018-10-18T06:43:12.154Z,0.70
2018-10-18T06:43:50.146Z,0.60
2018-10-18T06:44:28.277Z,0.85
2018-10-18T06:45:06.076Z,0.72
2018-10-18T06:45:44.261Z,0.82
2018-10-18T06:46:22.275Z,0.72
2018-10-18T06:47:00.445Z,0.70
2018-10-18T06:47:38.547Z,1.00
2018-10-18T06:48:17.462Z,1.10
2018-10-18T06:48:55.472Z,0.98
2018-10-18T06:49:33.603Z,1.00
2018-10-18T06:50:15.540Z,0.85
2018-10-18T06:50:54.699Z,0.90
2018-10-18T06:51:32.600Z,0.80
2018-10-18T06:52:10.530Z,0.90
2018-10-18T06:52:49.567Z,0.95
2018-10-18T06:53:27.730Z,0.90
2018-10-18T06:54:05.849Z,0.80
2018-10-18T06:54:43.822Z,1.10
2018-10-18T06:55:21.673Z,1.00
2018-10-18T06:55:59.649Z,1.52
2018-10-18T06:56:37.675Z,1.07
2018-10-18T06:57:15.659Z,0.70
2018-10-18T06:57:53.657Z,0.80
2018-10-18T06:58:31.744Z,0.90
2018-10-18T06:59:09.837Z,0.90
2018-10-18T06:59:47.859Z,1.10
2018-10-18T07:00:26.586Z,0.90
2018-10-18T07:01:04.932Z,1.05
2018-10-18T07:01:42.965Z,1.25
2018-10-18T07:02:20.899Z,1.10
2018-10-18T07:02:58.787Z,1.00
2018-10-18T07:03:36.908Z,1.00
2018-10-18T07:04:14.942Z,1.07
2018-10-18T07:04:52.903Z,1.22
2018-10-18T07:05:30.836Z,0.90
2018-10-18T07:06:09.042Z,1.02
2018-10-18T07:06:47.270Z,1.10
2018-10-18T07:07:25.183Z,1.10
2018-10-18T07:08:03.386Z,1.32
2018-10-18T07:08:41.271Z,1.20
2018-10-18T07:09:19.204Z,1.10
2018-10-18T07:09:57.115Z,1.00
2018-10-18T07:10:35.289Z,1.00
2018-10-18T07:11:13.299Z,1.12
2018-10-18T07:11:51.329Z,1.15
2018-10-18T07:12:29.228Z,1.15
2018-10-18T07:13:07.445Z,0.80
2018-10-18T07:13:45.340Z,1.32
2018-10-18T07:14:23.361Z,1.22
2018-10-18T07:15:01.335Z,1.47
2018-10-18T07:15:39.524Z,1.10
2018-10-18T07:16:17.510Z,1.10
2018-10-18T07:16:55.577Z,1.10
2018-10-18T07:17:33.571Z,1.20
2018-10-18T07:18:11.730Z,1.25
2018-10-18T07:18:49.851Z,1.35
2018-10-18T07:19:27.962Z,1.15
2018-10-18T07:20:06.115Z,1.10
2018-10-18T07:20:44.272Z,1.15
2018-10-18T07:21:22.209Z,0.90
2018-10-18T07:22:00.230Z,1.10
2018-10-18T07:22:38.547Z,1.27
2018-10-18T07:23:16.408Z,1.00
2018-10-18T07:23:54.244Z,1.00
2018-10-18T07:24:32.177Z,1.40
2018-10-18T07:25:13.098Z,1.15
2018-10-18T07:25:51.153Z,1.30
2018-10-18T07:26:29.064Z,1.40
2018-10-18T07:27:07.041Z,1.32
2018-10-18T07:27:45.286Z,1.30
2018-10-18T07:28:23.349Z,1.50
2018-10-18T07:29:01.319Z,1.52
2018-10-18T07:29:39.365Z,1.10
2018-10-18T07:30:18.239Z,0.90
2018-10-18T07:30:56.260Z,0.95
2018-10-18T07:31:34.228Z,1.00
2018-10-18T07:32:13.501Z,1.37
2018-10-18T07:32:51.637Z,1.02
2018-10-18T07:33:29.578Z,1.17
2018-10-18T07:34:07.596Z,1.27
2018-10-18T07:34:46.135Z,1.32
2018-10-18T07:35:24.109Z,1.10
2018-10-18T07:36:01.957Z,1.42
2018-10-18T07:36:40.081Z,1.13
2018-10-18T07:37:17.996Z,1.47
2018-10-18T07:37:55.884Z,1.20
2018-10-18T07:38:33.869Z,1.47
2018-10-18T07:39:15.498Z,1.35
2018-10-18T07:39:53.414Z,1.15
2018-10-18T07:40:31.390Z,1.50
2018-10-18T07:41:09.408Z,1.50
2018-10-18T07:41:47.429Z,1.70
2018-10-18T07:42:25.364Z,1.35
2018-10-18T07:43:03.164Z,1.80
2018-10-18T07:43:41.203Z,1.45
2018-10-18T07:44:19.065Z,1.55
2018-10-18T07:44:56.984Z,1.30
2018-10-18T07:45:34.875Z,1.87
2018-10-18T07:46:12.744Z,1.50
2018-10-18T07:46:50.861Z,1.37
2018-10-18T07:47:28.984Z,1.72
2018-10-18T07:48:07.215Z,1.80
2018-10-18T07:48:45.215Z,1.70
2018-10-18T07:49:23.182Z,1.20
2018-10-18T07:50:01.081Z,1.47
2018-10-18T07:50:38.934Z,1.80
2018-10-18T07:51:16.809Z,1.75
2018-10-18T07:51:55.027Z,1.60
2018-10-18T07:52:32.943Z,1.95
2018-10-18T07:53:11.272Z,1.60
2018-10-18T07:53:49.095Z,1.70
2018-10-18T07:54:27.449Z,1.75
2018-10-18T07:55:05.440Z,1.98
2018-10-18T07:55:43.364Z,1.62
2018-10-18T07:56:21.289Z,1.62
2018-10-18T07:56:59.343Z,1.55
2018-10-18T07:57:37.627Z,1.60
2018-10-18T07:58:15.704Z,1.92
2018-10-18T07:58:53.600Z,1.30
2018-10-18T07:59:31.516Z,1.52
2018-10-18T08:00:13.150Z,1.40
2018-10-18T08:00:51.134Z,1.52
2018-10-18T08:01:29.335Z,1.62
2018-10-18T08:02:08.053Z,1.87
2018-10-18T08:02:46.520Z,1.57
2018-10-18T08:03:24.563Z,1.90
2018-10-18T08:04:02.410Z,1.75
2018-10-18T08:04:40.253Z,1.60
2018-10-18T08:05:18.351Z,1.22
2018-10-18T08:05:56.382Z,1.70
2018-10-18T08:06:34.254Z,1.45
2018-10-18T08:07:12.330Z,1.60
2018-10-18T08:07:50.342Z,1.47
2018-10-18T08:08:28.170Z,1.50
2018-10-18T08:09:07.196Z,1.60
2018-10-18T08:09:45.218Z,1.37
2018-10-18T08:10:23.131Z,1.57
2018-10-18T08:11:01.073Z,1.90
2018-10-18T08:11:38.914Z,1.55
2018-10-18T08:12:16.765Z,1.57
2018-10-18T08:12:54.616Z,2.20
2018-10-18T08:13:32.789Z,1.57
2018-10-18T08:14:10.923Z,1.47
2018-10-18T08:14:49.010Z,1.70
2018-10-18T08:15:27.017Z,1.62
2018-10-18T08:16:05.040Z,1.70
2018-10-18T08:16:43.171Z,1.80
2018-10-18T08:17:21.219Z,1.65
2018-10-18T08:17:59.131Z,1.47
2018-10-18T08:18:37.118Z,1.50
2018-10-18T08:19:15.191Z,1.37
2018-10-18T08:19:53.220Z,1.37
2018-10-18T08:20:31.204Z,1.65
2018-10-18T08:21:09.517Z,1.95
2018-10-18T08:21:47.505Z,1.57
2018-10-18T08:22:25.435Z,1.60
2018-10-18T08:23:03.463Z,1.70
2018-10-18T08:23:41.511Z,1.37
2018-10-18T08:24:19.485Z,1.55
2018-10-18T08:24:57.457Z,1.40
2018-10-18T08:25:35.484Z,1.25
2018-10-18T08:26:14.455Z,1.37
2018-10-18T08:26:52.422Z,1.30
2018-10-18T08:27:30.391Z,1.57
2018-10-18T08:28:08.349Z,1.27
2018-10-18T08:28:46.232Z,1.35
2018-10-18T08:29:24.380Z,1.30
2018-10-18T08:30:02.325Z,1.62
2018-10-18T08:30:40.230Z,1.30
2018-10-18T08:31:18.464Z,1.52
2018-10-18T08:31:57.119Z,1.50
2018-10-18T08:32:35.797Z,1.10
2018-10-18T08:33:13.679Z,1.20
2018-10-18T08:33:51.742Z,1.25
2018-10-18T08:34:29.744Z,1.17
2018-10-18T08:35:08.010Z,1.00